createdAt,value
2019-03-20T00:00:17.811Z,315.00
2019-03-20T00:02:17.850Z,315.00
2019-03-20T00:04:18.057Z,315.00
2019-03-20T00:06:17.874Z,315.00
2019-03-20T00:08:17.881Z,315.00
2019-03-20T00:10:17.856Z,315.00
2019-03-20T00:12:17.677Z,315.00
2019-03-20T00:14:17.811Z,315.00
2019-03-20T00:16:17.931Z,315.00
2019-03-20T00:18:17.794Z,315.00
2019-03-20T00:20:17.845Z,315.00
2019-03-20T00:22:17.763Z,315.00
2019-03-20T00:24:17.770Z,315.00
2019-03-20T00:26:17.813Z,315.00
2019-03-20T00:28:17.821Z,315.00
2019-03-20T00:30:17.876Z,315.00
2019-03-20T00:32:17.918Z,315.00
2019-03-20T00:34:18.130Z,315.00
2019-03-20T00:36:18.082Z,315.00
2019-03-20T00:38:17.742Z,315.00
2019-03-20T00:40:17.475Z,315.00
2019-03-20T00:42:17.969Z,315.00
2019-03-20T00:44:17.786Z,315.00
2019-03-20T00:46:17.725Z,315.00
2019-03-20T00:48:17.719Z,315.00
2019-03-20T00:50:17.816Z,315.00
2019-03-20T00:52:17.846Z,315.00
2019-03-20T00:54:17.751Z,315.00
2019-03-20T00:56:17.752Z,315.00
2019-03-20T00:58:17.993Z,315.00
2019-03-20T01:00:17.773Z,315.00
2019-03-20T01:02:17.783Z,315.00
2019-03-20T01:04:17.998Z,315.00
2019-03-20T01:06:17.985Z,315.00
2019-03-20T01:08:17.770Z,315.00
2019-03-20T01:10:18.244Z,315.00
2019-03-20T01:12:18.186Z,315.00
2019-03-20T01:14:17.776Z,315.00
2019-03-20T01:16:17.856Z,315.00
2019-03-20T01:18:17.883Z,315.00
2019-03-20T01:20:17.684Z,315.00
2019-03-20T01:22:17.717Z,315.00
2019-03-20T01:24:17.808Z,315.00
2019-03-20T01:26:17.815Z,315.00
2019-03-20T01:28:17.836Z,315.00
2019-03-20T01:30:17.849Z,315.00
2019-03-20T01:32:17.794Z,315.00
2019-03-20T01:34:17.970Z,315.00
2019-03-20T01:36:17.878Z,315.00
2019-03-20T01:38:17.894Z,315.00
2019-03-20T01:40:17.901Z,315.00
2019-03-20T01:42:17.702Z,315.00
2019-03-20T01:44:18.008Z,315.00
2019-03-20T01:46:17.633Z,315.00
2019-03-20T01:48:17.940Z,315.00
2019-03-20T01:50:17.954Z,315.00
2019-03-20T01:52:17.970Z,315.00
2019-03-20T01:54:18.111Z,315.00
2019-03-20T01:56:17.805Z,315.00
2019-03-20T01:58:17.899Z,315.00
2019-03-20T02:00:17.710Z,315.00
2019-03-20T02:02:17.934Z,315.00
2019-03-20T02:04:17.857Z,315.00
2019-03-20T02:06:17.945Z,315.00
2019-03-20T02:08:17.844Z,315.00
2019-03-20T02:10:17.967Z,315.00
2019-03-20T02:12:18.042Z,315.00
2019-03-20T02:14:17.896Z,315.00
2019-03-20T02:16:17.904Z,315.00
2019-03-20T02:18:18.233Z,315.00
2019-03-20T02:20:17.839Z,315.00
2019-03-20T02:22:17.835Z,315.00
2019-03-20T02:24:18.058Z,315.00
2019-03-20T02:26:18.264Z,315.00
2019-03-20T02:28:17.756Z,315.00
2019-03-20T02:30:17.764Z,315.00
2019-03-20T02:32:17.995Z,315.00
2019-03-20T02:34:18.374Z,315.00
2019-03-20T02:36:18.189Z,315.00
2019-03-20T02:38:18.028Z,315.00
2019-03-20T02:40:18.243Z,315.00
2019-03-20T02:42:17.922Z,315.00
2019-03-20T02:44:17.964Z,315.00
2019-03-20T02:46:18.019Z,315.00
2019-03-20T02:48:18.193Z,315.00
2019-03-20T02:50:18.008Z,315.00
2019-03-20T02:52:17.957Z,315.00
2019-03-20T02:54:17.917Z,315.00
2019-03-20T02:56:17.935Z,315.00
2019-03-20T02:58:17.968Z,315.00
2019-03-20T03:00:18.463Z,315.00
2019-03-20T03:02:17.967Z,315.00
2019-03-20T03:04:18.210Z,315.00
2019-03-20T03:06:18.425Z,315.00
2019-03-20T03:08:18.030Z,315.00
2019-03-20T03:10:17.712Z,315.00
2019-03-20T03:12:17.700Z,315.00
2019-03-20T03:14:18.445Z,315.00
2019-03-20T03:16:18.160Z,315.00
2019-03-20T03:18:17.932Z,315.00
2019-03-20T03:20:17.995Z,315.00
2019-03-20T03:22:17.980Z,315.00
2019-03-20T03:24:18.214Z,315.00
2019-03-20T03:26:18.320Z,315.00
2019-03-20T03:28:17.907Z,315.00
2019-03-20T03:30:17.996Z,315.00
2019-03-20T03:32:18.112Z,315.00
2019-03-20T03:34:18.050Z,315.00
2019-03-20T03:36:21.532Z,315.00
2019-03-20T03:38:17.868Z,315.00
2019-03-20T03:40:18.085Z,315.00
2019-03-20T03:42:17.892Z,315.00
2019-03-20T03:44:18.017Z,315.00
2019-03-20T03:46:17.911Z,315.00
2019-03-20T03:48:18.016Z,315.00
2019-03-20T03:50:17.924Z,315.00
2019-03-20T03:52:17.946Z,315.00
2019-03-20T03:54:18.570Z,315.00
2019-03-20T03:56:17.766Z,315.00
2019-03-20T03:58:17.988Z,315.00
2019-03-20T04:00:18.098Z,315.00
2019-03-20T04:02:18.106Z,315.00
2019-03-20T04:04:17.933Z,315.00
2019-03-20T04:06:17.926Z,315.00
2019-03-20T04:08:18.038Z,315.00
2019-03-20T04:10:17.743Z,315.00
2019-03-20T04:12:17.762Z,315.00
2019-03-20T04:14:18.106Z,315.00
2019-03-20T04:16:18.103Z,315.00
2019-03-20T04:18:18.108Z,315.00
2019-03-20T04:20:18.085Z,315.00
2019-03-20T04:22:18.225Z,315.00
2019-03-20T04:24:18.049Z,315.00
2019-03-20T04:26:18.019Z,315.00
2019-03-20T04:28:17.946Z,315.00
2019-03-20T04:30:18.142Z,315.00
2019-03-20T04:32:17.974Z,315.00
2019-03-20T04:34:18.087Z,315.00
2019-03-20T04:36:18.034Z,315.00
2019-03-20T04:38:18.114Z,61.91
2019-03-20T04:40:18.039Z,90.00
2019-03-20T04:42:17.821Z,90.00
2019-03-20T04:44:17.991Z,90.00
2019-03-20T04:46:17.904Z,90.00
2019-03-20T04:48:17.836Z,90.00
2019-03-20T04:50:17.979Z,90.00
2019-03-20T04:52:18.088Z,90.00
2019-03-20T04:54:17.862Z,90.00
2019-03-20T04:56:18.110Z,90.00
2019-03-20T04:58:18.122Z,90.00
2019-03-20T05:00:18.131Z,90.00
2019-03-20T05:02:18.078Z,90.00
2019-03-20T05:04:18.096Z,90.00
2019-03-20T05:06:18.171Z,90.00
2019-03-20T05:08:17.976Z,90.00
2019-03-20T05:10:17.989Z,90.00
2019-03-20T05:12:17.847Z,90.00
2019-03-20T05:14:17.895Z,90.00
2019-03-20T05:16:17.964Z,90.00
2019-03-20T05:18:18.031Z,90.00
2019-03-20T05:20:18.061Z,90.00
2019-03-20T05:22:18.263Z,90.00
2019-03-20T05:24:18.182Z,90.00
2019-03-20T05:26:17.978Z,90.00
2019-03-20T05:28:18.058Z,90.00
2019-03-20T05:30:17.935Z,90.00
2019-03-20T05:32:19.690Z,90.00
2019-03-20T05:34:18.079Z,90.00
2019-03-20T05:36:18.340Z,90.00
2019-03-20T05:38:18.150Z,90.00
2019-03-20T05:40:18.166Z,90.00
2019-03-20T05:42:18.068Z,90.00
2019-03-20T05:44:18.077Z,90.00
2019-03-20T05:46:18.103Z,90.00
2019-03-20T05:48:17.859Z,90.00
2019-03-20T05:50:18.014Z,90.00
2019-03-20T05:52:17.952Z,90.00
2019-03-20T05:54:18.043Z,90.00
2019-03-20T05:56:17.983Z,90.00
2019-03-20T05:58:17.928Z,90.00
2019-03-20T06:00:17.864Z,90.00
2019-03-20T06:02:17.993Z,90.00
2019-03-20T06:04:18.094Z,90.00
2019-03-20T06:06:18.195Z,90.00
2019-03-20T06:08:18.113Z,90.00
2019-03-20T06:10:18.108Z,90.00
2019-03-20T06:12:18.163Z,90.00
2019-03-20T06:14:18.154Z,90.00
2019-03-20T06:16:18.161Z,90.00
2019-03-20T06:18:18.181Z,90.00
2019-03-20T06:20:18.199Z,90.00
2019-03-20T06:22:18.154Z,90.00
2019-03-20T06:24:19.440Z,90.00
2019-03-20T06:26:18.133Z,90.00
2019-03-20T06:28:18.236Z,90.00
2019-03-20T06:30:18.146Z,90.00
2019-03-20T06:32:17.868Z,90.00
2019-03-20T06:34:18.270Z,90.00
2019-03-20T06:36:17.980Z,90.00
2019-03-20T06:38:18.120Z,90.00
2019-03-20T06:40:18.203Z,90.00
2019-03-20T06:42:18.233Z,90.00
2019-03-20T06:44:18.152Z,90.00
2019-03-20T06:46:18.433Z,90.00
2019-03-20T06:48:18.078Z,90.00
2019-03-20T06:50:18.154Z,90.00
2019-03-20T06:52:18.277Z,90.00
2019-03-20T06:54:17.940Z,90.00
2019-03-20T06:56:18.193Z,90.00
2019-03-20T06:58:18.332Z,90.00
2019-03-20T07:00:18.316Z,90.00
2019-03-20T07:02:18.231Z,90.00
2019-03-20T07:04:18.136Z,90.00
2019-03-20T07:06:18.045Z,90.00
2019-03-20T07:08:18.151Z,90.00
2019-03-20T07:10:18.170Z,90.00
2019-03-20T07:12:18.125Z,90.00
2019-03-20T07:14:18.192Z,90.00
2019-03-20T07:16:18.020Z,109.12
2019-03-20T07:18:18.107Z,260.67
2019-03-20T07:20:18.223Z,270.00
2019-03-20T07:22:18.134Z,270.00
2019-03-20T07:24:18.143Z,270.00
2019-03-20T07:26:17.902Z,270.00
2019-03-20T07:28:18.128Z,251.16
2019-03-20T07:30:18.040Z,148.03
2019-03-20T07:32:18.194Z,91.18
2019-03-20T07:34:18.308Z,95.39
2019-03-20T07:36:18.675Z,112.25
2019-03-20T07:38:18.241Z,90.00
2019-03-20T07:40:18.342Z,124.03
2019-03-20T07:42:18.372Z,115.15
2019-03-20T07:44:18.051Z,90.00
2019-03-20T07:46:18.376Z,90.00
2019-03-20T07:48:22.508Z,132.01
2019-03-20T07:50:18.308Z,114.31
2019-03-20T07:52:21.046Z,113.20
2019-03-20T07:54:18.426Z,90.00
2019-03-20T07:56:18.119Z,90.00
2019-03-20T07:58:18.222Z,94.04
2019-03-20T08:00:18.308Z,109.80
2019-03-20T08:02:18.368Z,114.58
2019-03-20T08:04:18.133Z,119.91
2019-03-20T08:06:18.088Z,212.53
2019-03-20T08:08:18.300Z,188.06
2019-03-20T08:10:18.204Z,135.00
2019-03-20T08:12:18.109Z,93.34
2019-03-20T08:14:18.246Z,90.00
2019-03-20T08:16:18.346Z,90.00
2019-03-20T08:18:18.358Z,90.00
2019-03-20T08:20:18.275Z,119.89
2019-03-20T08:22:18.386Z,93.96
2019-03-20T08:24:18.386Z,115.42
2019-03-20T08:26:18.100Z,95.83
2019-03-20T08:28:18.307Z,90.00
2019-03-20T08:30:18.126Z,95.77
2019-03-20T08:32:18.431Z,100.80
2019-03-20T08:34:18.253Z,109.27
2019-03-20T08:36:18.260Z,97.04
2019-03-20T08:38:18.999Z,115.69
2019-03-20T08:40:18.280Z,91.33
2019-03-20T08:42:18.288Z,123.10
2019-03-20T08:44:18.306Z,93.85
2019-03-20T08:46:18.309Z,100.73
2019-03-20T08:48:18.428Z,115.50
2019-03-20T08:50:18.244Z,135.00
2019-03-20T08:52:18.403Z,114.65
2019-03-20T08:54:18.458Z,85.49
2019-03-20T08:56:18.272Z,55.36
2019-03-20T08:58:18.180Z,90.48
2019-03-20T09:00:18.079Z,25.31
2019-03-20T09:02:18.312Z,109.85
2019-03-20T09:04:18.231Z,99.52
2019-03-20T09:06:18.227Z,106.13
2019-03-20T09:08:28.502Z,101.88
2019-03-20T09:10:18.246Z,99.57
2019-03-20T09:12:18.363Z,111.52
2019-03-20T09:14:18.473Z,95.62
2019-03-20T09:16:18.386Z,109.10
2019-03-20T09:18:18.389Z,105.95
2019-03-20T09:20:18.449Z,111.91
2019-03-20T09:22:18.522Z,104.34
2019-03-20T09:24:18.318Z,115.72
2019-03-20T09:26:18.537Z,112.09
2019-03-20T09:28:18.282Z,107.36
2019-03-20T09:30:18.262Z,104.40
2019-03-20T09:32:18.476Z,107.09
2019-03-20T09:34:18.485Z,106.61
2019-03-20T09:36:18.498Z,96.07
2019-03-20T09:38:18.523Z,100.02
2019-03-20T09:40:18.727Z,115.45
2019-03-20T09:42:18.230Z,125.63
2019-03-20T09:44:18.540Z,107.93
2019-03-20T09:46:18.458Z,109.96
2019-03-20T09:48:18.465Z,264.02
2019-03-20T09:50:18.690Z,123.42
2019-03-20T09:52:18.483Z,114.63
2019-03-20T09:54:18.503Z,113.84
2019-03-20T09:56:18.656Z,107.23
2019-03-20T09:58:18.372Z,104.16
2019-03-20T10:00:18.533Z,124.58
2019-03-20T10:02:18.246Z,267.24
2019-03-20T10:04:18.768Z,273.35
2019-03-20T10:06:18.564Z,303.58
2019-03-20T10:08:18.362Z,101.06
2019-03-20T10:10:18.487Z,116.12
2019-03-20T10:12:18.423Z,111.95
2019-03-20T10:14:18.520Z,110.03
2019-03-20T10:16:18.483Z,94.58
2019-03-20T10:18:18.337Z,119.31
2019-03-20T10:20:18.549Z,108.34
2019-03-20T10:22:18.477Z,130.30
2019-03-20T10:24:18.331Z,108.51
2019-03-20T10:26:18.582Z,101.51
2019-03-20T10:28:18.603Z,98.59
2019-03-20T10:30:18.502Z,126.01
2019-03-20T10:32:18.625Z,99.98
2019-03-20T10:34:18.420Z,104.99
2019-03-20T10:36:18.636Z,95.71
2019-03-20T10:38:18.552Z,107.32
2019-03-20T10:40:18.244Z,99.57
2019-03-20T10:42:18.782Z,121.93
2019-03-20T10:44:18.273Z,242.85
2019-03-20T10:46:18.699Z,129.64
2019-03-20T10:48:18.520Z,147.01
2019-03-20T10:50:21.292Z,113.39
2019-03-20T10:52:18.659Z,93.77
2019-03-20T10:54:18.641Z,117.70
2019-03-20T10:56:18.453Z,183.98
2019-03-20T10:58:18.625Z,97.37
2019-03-20T11:00:18.506Z,120.90
2019-03-20T11:02:18.695Z,119.81
2019-03-20T11:04:18.645Z,324.23
2019-03-20T11:06:18.531Z,116.88
2019-03-20T11:08:18.527Z,118.44
2019-03-20T11:10:18.552Z,118.20
2019-03-20T11:12:18.337Z,114.44
2019-03-20T11:14:18.539Z,114.33
2019-03-20T11:16:18.395Z,116.58
2019-03-20T11:18:18.600Z,115.48
2019-03-20T11:20:18.548Z,107.86
2019-03-20T11:22:19.278Z,98.73
2019-03-20T11:24:18.540Z,103.79
2019-03-20T11:26:18.420Z,122.07
2019-03-20T11:28:18.644Z,330.99
2019-03-20T11:30:18.366Z,322.32
2019-03-20T11:32:18.447Z,312.24
2019-03-20T11:34:18.675Z,134.83
2019-03-20T11:36:18.476Z,212.92
2019-03-20T11:38:18.692Z,109.13
2019-03-20T11:40:18.702Z,89.45
2019-03-20T11:42:18.618Z,106.74
2019-03-20T11:44:18.731Z,138.49
2019-03-20T11:46:18.367Z,111.55
2019-03-20T11:48:18.441Z,121.49
2019-03-20T11:50:18.659Z,101.27
2019-03-20T11:52:18.649Z,119.61
2019-03-20T11:54:18.375Z,115.58
2019-03-20T11:56:18.594Z,106.05
2019-03-20T11:58:18.609Z,70.76
2019-03-20T12:00:18.686Z,89.25
2019-03-20T12:02:27.707Z,110.34
2019-03-20T12:04:18.746Z,109.27
2019-03-20T12:06:18.553Z,267.11
2019-03-20T12:08:18.688Z,44.52
2019-03-20T12:10:18.679Z,109.75
2019-03-20T12:12:19.121Z,108.78
2019-03-20T12:14:18.804Z,128.23
2019-03-20T12:16:18.816Z,161.68
2019-03-20T12:18:18.723Z,257.33
2019-03-20T12:20:18.753Z,115.92
2019-03-20T12:22:18.745Z,117.60
2019-03-20T12:24:18.557Z,92.49
2019-03-20T12:26:18.567Z,159.91
2019-03-20T12:28:18.696Z,100.62
2019-03-20T12:30:18.697Z,106.59
2019-03-20T12:32:18.803Z,272.42
2019-03-20T12:34:18.716Z,110.03
2019-03-20T12:36:18.515Z,119.86
2019-03-20T12:38:18.954Z,112.82
2019-03-20T12:40:18.647Z,91.33
2019-03-20T12:42:18.730Z,97.72
2019-03-20T12:44:18.671Z,98.58
2019-03-20T12:46:18.478Z,298.50
2019-03-20T12:48:18.775Z,111.96
2019-03-20T12:50:18.539Z,324.43
2019-03-20T12:52:18.827Z,180.53
2019-03-20T12:54:18.828Z,105.47
2019-03-20T12:56:18.845Z,285.30
2019-03-20T12:58:18.755Z,100.50
2019-03-20T13:00:18.875Z,102.48
2019-03-20T13:02:18.648Z,51.64
2019-03-20T13:04:18.798Z,326.91
2019-03-20T13:06:18.799Z,143.55
2019-03-20T13:08:18.849Z,111.82
2019-03-20T13:10:19.070Z,99.16
2019-03-20T13:12:18.583Z,99.72
2019-03-20T13:14:18.951Z,123.32
2019-03-20T13:16:18.752Z,133.10
2019-03-20T13:18:18.721Z,117.27
2019-03-20T13:20:18.703Z,104.02
2019-03-20T13:22:18.658Z,93.81
2019-03-20T13:24:18.697Z,107.73
2019-03-20T13:26:18.637Z,123.31
2019-03-20T13:28:18.668Z,312.17
2019-03-20T13:30:20.397Z,110.18
2019-03-20T13:32:18.750Z,95.86
2019-03-20T13:34:18.655Z,89.14
2019-03-20T13:36:18.570Z,230.62
2019-03-20T13:38:18.574Z,250.23
2019-03-20T13:40:18.690Z,228.11
2019-03-20T13:42:18.703Z,243.08
2019-03-20T13:44:18.915Z,120.37
2019-03-20T13:46:18.752Z,80.07
2019-03-20T13:48:18.835Z,102.15
2019-03-20T13:50:18.856Z,128.81
2019-03-20T13:52:18.863Z,131.95
2019-03-20T13:54:18.874Z,115.39
2019-03-20T13:56:18.810Z,115.27
2019-03-20T13:58:18.858Z,95.05
2019-03-20T14:00:18.849Z,93.48
2019-03-20T14:02:18.711Z,51.72
2019-03-20T14:04:18.788Z,285.98
2019-03-20T14:06:18.839Z,112.09
2019-03-20T14:08:18.810Z,102.10
2019-03-20T14:10:25.155Z,101.21
2019-03-20T14:12:18.776Z,134.53
2019-03-20T14:14:18.791Z,110.58
2019-03-20T14:16:18.799Z,114.87
2019-03-20T14:18:18.809Z,94.39
2019-03-20T14:20:18.730Z,144.71
2019-03-20T14:22:18.675Z,22.40
2019-03-20T14:24:18.947Z,89.29
2019-03-20T14:26:18.967Z,61.34
2019-03-20T14:28:18.972Z,122.71
2019-03-20T14:30:18.735Z,108.60
2019-03-20T14:32:18.953Z,136.36
2019-03-20T14:34:18.772Z,234.81
2019-03-20T14:36:18.810Z,157.59
2019-03-20T14:38:18.957Z,109.08
2019-03-20T14:40:19.250Z,107.23
2019-03-20T14:42:19.153Z,143.16
2019-03-20T14:44:18.968Z,103.79
2019-03-20T14:46:18.947Z,209.82
2019-03-20T14:48:18.891Z,121.40
2019-03-20T14:50:18.952Z,290.33
2019-03-20T14:52:18.942Z,275.75
2019-03-20T14:54:18.823Z,240.51
2019-03-20T14:56:19.040Z,261.88
2019-03-20T14:58:18.870Z,170.59
2019-03-20T15:00:19.057Z,6.50
2019-03-20T15:02:18.927Z,164.54
2019-03-20T15:04:18.901Z,136.33
2019-03-20T15:06:18.821Z,124.15
2019-03-20T15:08:18.963Z,181.72
2019-03-20T15:10:19.121Z,49.08
2019-03-20T15:12:19.053Z,216.91
2019-03-20T15:14:18.943Z,182.47
2019-03-20T15:16:18.953Z,74.41
2019-03-20T15:18:18.960Z,358.77
2019-03-20T15:20:18.762Z,271.96
2019-03-20T15:22:19.092Z,156.06
2019-03-20T15:24:18.943Z,128.83
2019-03-20T15:26:19.002Z,137.08
2019-03-20T15:28:18.809Z,93.84
2019-03-20T15:30:18.992Z,245.25
2019-03-20T15:32:19.046Z,291.92
2019-03-20T15:34:18.885Z,304.45
2019-03-20T15:36:18.972Z,193.30
2019-03-20T15:38:18.868Z,276.22
2019-03-20T15:40:18.684Z,233.64
2019-03-20T15:42:18.900Z,116.72
2019-03-20T15:44:19.015Z,95.47
2019-03-20T15:46:18.991Z,104.04
2019-03-20T15:48:19.032Z,126.03
2019-03-20T15:50:19.047Z,90.44
2019-03-20T15:52:19.028Z,308.40
2019-03-20T15:54:19.068Z,279.87
2019-03-20T15:56:19.082Z,94.99
2019-03-20T15:58:18.906Z,90.70
2019-03-20T16:00:19.007Z,125.86
2019-03-20T16:02:18.800Z,95.57
2019-03-20T16:04:18.927Z,90.00
2019-03-20T16:06:19.032Z,123.03
2019-03-20T16:08:19.252Z,94.52
2019-03-20T16:10:19.068Z,102.15
2019-03-20T16:12:19.177Z,94.23
2019-03-20T16:14:19.186Z,110.90
2019-03-20T16:16:18.993Z,101.27
2019-03-20T16:18:19.013Z,85.39
2019-03-20T16:20:18.918Z,109.66
2019-03-20T16:22:18.929Z,108.91
2019-03-20T16:24:18.895Z,118.62
2019-03-20T16:26:18.955Z,142.31
2019-03-20T16:28:19.000Z,42.74
2019-03-20T16:30:18.867Z,111.99
2019-03-20T16:32:19.099Z,120.50
2019-03-20T16:34:19.110Z,122.17
2019-03-20T16:36:19.325Z,108.68
2019-03-20T16:38:19.126Z,131.10
2019-03-20T16:40:19.095Z,97.25
2019-03-20T16:42:18.950Z,98.92
2019-03-20T16:44:18.993Z,98.13
2019-03-20T16:46:18.735Z,112.26
2019-03-20T16:48:18.759Z,110.38
2019-03-20T16:50:18.870Z,131.00
2019-03-20T16:52:19.485Z,110.37
2019-03-20T16:54:19.541Z,79.65
2019-03-20T16:56:19.233Z,125.34
2019-03-20T16:58:19.042Z,95.72
2019-03-20T17:00:19.460Z,111.38
2019-03-20T17:02:18.931Z,102.38
2019-03-20T17:04:19.482Z,153.43
2019-03-20T17:06:18.930Z,118.28
2019-03-20T17:08:19.174Z,123.01
2019-03-20T17:10:18.931Z,90.00
2019-03-20T17:12:18.959Z,90.00
2019-03-20T17:14:20.300Z,133.43
2019-03-20T17:16:18.976Z,139.23
2019-03-20T17:18:18.977Z,135.00
2019-03-20T17:20:18.873Z,135.00
2019-03-20T17:22:19.176Z,135.00
2019-03-20T17:24:18.987Z,135.00
2019-03-20T17:26:19.477Z,135.00
2019-03-20T17:28:19.420Z,135.00
2019-03-20T17:30:19.067Z,135.00
2019-03-20T17:32:18.933Z,135.00
2019-03-20T17:34:19.269Z,135.00
2019-03-20T17:36:19.161Z,135.00
2019-03-20T17:38:19.144Z,135.00
2019-03-20T17:40:18.958Z,135.00
2019-03-20T17:42:19.494Z,135.00
2019-03-20T17:44:19.517Z,135.00
2019-03-20T17:46:19.324Z,135.00
2019-03-20T17:48:19.326Z,135.00
2019-03-20T17:50:19.545Z,167.79
2019-03-20T17:52:19.561Z,225.00
2019-03-20T17:54:19.291Z,276.58
2019-03-20T17:56:19.181Z,315.00
2019-03-20T17:58:19.394Z,315.00
2019-03-20T18:00:19.560Z,315.00
2019-03-20T18:02:24.080Z,315.00
2019-03-20T18:04:19.523Z,315.00
2019-03-20T18:06:19.422Z,315.00
2019-03-20T18:08:19.551Z,315.00
2019-03-20T18:10:19.467Z,315.00
2019-03-20T18:12:19.570Z,315.00
2019-03-20T18:14:19.582Z,315.00
2019-03-20T18:16:19.506Z,315.00
2019-03-20T18:18:19.506Z,315.00
2019-03-20T18:20:19.374Z,315.00
2019-03-20T18:22:19.327Z,315.00
2019-03-20T18:24:19.541Z,315.00
2019-03-20T18:26:19.658Z,315.00
2019-03-20T18:28:21.598Z,315.00
2019-03-20T18:30:19.477Z,315.00
2019-03-20T18:32:19.253Z,315.00
2019-03-20T18:34:19.115Z,315.00
2019-03-20T18:36:19.532Z,315.00
2019-03-20T18:38:19.423Z,315.00
2019-03-20T18:40:19.330Z,315.00
2019-03-20T18:42:19.338Z,315.00
2019-03-20T18:44:19.565Z,315.00
2019-03-20T18:46:19.376Z,315.00
2019-03-20T18:48:19.384Z,315.00
2019-03-20T18:50:19.357Z,315.00
2019-03-20T18:52:19.189Z,315.00
2019-03-20T18:54:19.517Z,315.00
2019-03-20T18:56:19.328Z,315.00
2019-03-20T18:58:19.436Z,315.00
2019-03-20T19:00:19.397Z,315.00
2019-03-20T19:02:22.193Z,315.00
2019-03-20T19:04:19.366Z,315.00
2019-03-20T19:06:19.383Z,280.93
2019-03-20T19:08:22.260Z,225.00
2019-03-20T19:10:19.614Z,225.00
2019-03-20T19:12:19.281Z,225.00
2019-03-20T19:14:19.395Z,225.00
2019-03-20T19:16:22.412Z,225.00
2019-03-20T19:18:19.598Z,225.00
2019-03-20T19:20:20.038Z,225.00
2019-03-20T19:22:19.531Z,225.00
2019-03-20T19:24:19.393Z,225.00
2019-03-20T19:26:19.674Z,225.00
2019-03-20T19:28:19.417Z,225.00
2019-03-20T19:30:19.824Z,225.00
2019-03-20T19:32:19.631Z,225.00
2019-03-20T19:34:19.696Z,225.00
2019-03-20T19:36:22.563Z,225.00
2019-03-20T19:38:19.666Z,225.00
2019-03-20T19:40:19.371Z,225.00
2019-03-20T19:42:20.284Z,225.00
2019-03-20T19:44:19.354Z,225.00
2019-03-20T19:46:19.435Z,225.00
2019-03-20T19:48:19.322Z,225.00
2019-03-20T19:50:19.486Z,225.00
2019-03-20T19:52:19.436Z,225.00
2019-03-20T19:54:19.562Z,225.00
2019-03-20T19:56:22.426Z,225.00
2019-03-20T19:58:19.490Z,225.00
2019-03-20T20:00:22.340Z,225.00
2019-03-20T20:02:19.433Z,225.00
2019-03-20T20:04:19.515Z,225.00
2019-03-20T20:06:19.310Z,225.00
2019-03-20T20:08:19.243Z,225.00
2019-03-20T20:10:19.403Z,225.00
2019-03-20T20:12:30.499Z,225.00
2019-03-20T20:14:19.243Z,225.00
2019-03-20T20:16:19.271Z,225.00
2019-03-20T20:18:19.696Z,225.00
2019-03-20T20:20:19.197Z,225.00
2019-03-20T20:22:19.206Z,225.00
2019-03-20T20:24:19.226Z,225.00
2019-03-20T20:26:22.254Z,225.00
2019-03-20T20:28:19.454Z,225.00
2019-03-20T20:30:19.152Z,225.00
2019-03-20T20:32:19.123Z,225.00
2019-03-20T20:34:19.094Z,225.00
2019-03-20T20:36:19.107Z,225.00
2019-03-20T20:38:19.509Z,225.00
2019-03-20T20:40:19.219Z,225.00
2019-03-20T20:42:19.634Z,225.00
2019-03-20T20:44:19.032Z,225.00
2019-03-20T20:46:19.256Z,225.00
2019-03-20T20:48:19.267Z,225.00
2019-03-20T20:50:19.393Z,225.00
2019-03-20T20:52:19.793Z,225.00
2019-03-20T20:54:19.299Z,225.00
2019-03-20T20:56:19.096Z,225.00
2019-03-20T20:58:19.316Z,225.00
2019-03-20T21:00:19.267Z,225.00
2019-03-20T21:02:19.290Z,225.00
2019-03-20T21:04:19.276Z,225.00
2019-03-20T21:06:19.565Z,225.00
2019-03-20T21:08:19.270Z,225.00
2019-03-20T21:10:19.382Z,225.00
2019-03-20T21:12:19.401Z,225.00
2019-03-20T21:14:19.211Z,225.00
2019-03-20T21:16:19.429Z,225.00
2019-03-20T21:18:19.334Z,225.00
2019-03-20T21:20:19.546Z,225.00
2019-03-20T21:22:19.361Z,225.00
2019-03-20T21:24:19.268Z,225.00
2019-03-20T21:26:19.274Z,225.00
2019-03-20T21:28:19.195Z,225.00
2019-03-20T21:30:19.297Z,225.00
2019-03-20T21:32:19.273Z,225.00
2019-03-20T21:34:19.424Z,225.00
2019-03-20T21:36:19.331Z,225.00
2019-03-20T21:38:19.657Z,225.00
2019-03-20T21:40:19.466Z,225.00
2019-03-20T21:42:19.201Z,225.00
2019-03-20T21:44:19.281Z,225.00
2019-03-20T21:46:19.294Z,225.00
2019-03-20T21:48:19.252Z,225.00
2019-03-20T21:50:19.150Z,225.00
2019-03-20T21:52:19.329Z,225.00
2019-03-20T21:54:19.436Z,225.00
2019-03-20T21:56:19.428Z,225.00
2019-03-20T21:58:19.393Z,225.00
2019-03-20T22:00:19.370Z,225.00
2019-03-20T22:02:19.487Z,225.00
2019-03-20T22:04:19.297Z,225.00
2019-03-20T22:06:19.236Z,225.00
2019-03-20T22:08:19.423Z,225.00
2019-03-20T22:10:19.441Z,225.00
2019-03-20T22:12:19.649Z,225.00
2019-03-20T22:14:19.266Z,225.00
2019-03-20T22:16:19.335Z,225.00
2019-03-20T22:18:19.375Z,225.00
2019-03-20T22:20:19.792Z,225.00
2019-03-20T22:22:19.385Z,225.00
2019-03-20T22:24:19.240Z,225.00
2019-03-20T22:26:19.417Z,225.00
2019-03-20T22:28:19.388Z,225.00
2019-03-20T22:30:19.375Z,225.00
2019-03-20T22:32:19.670Z,225.00
2019-03-20T22:34:19.469Z,225.00
2019-03-20T22:36:19.485Z,225.00
2019-03-20T22:38:19.330Z,225.00
2019-03-20T22:40:19.396Z,225.00
2019-03-20T22:42:19.410Z,225.00
2019-03-20T22:44:21.860Z,225.00
2019-03-20T22:46:19.439Z,225.00
2019-03-20T22:48:19.241Z,225.00
2019-03-20T22:50:19.460Z,225.00
2019-03-20T22:52:19.477Z,225.00
2019-03-20T22:54:21.643Z,225.00
2019-03-20T22:56:19.698Z,225.00
2019-03-20T22:58:19.606Z,225.00
2019-03-20T23:00:19.337Z,225.00
2019-03-20T23:02:22.495Z,225.00
2019-03-20T23:04:19.164Z,225.00
2019-03-20T23:06:19.242Z,225.00
2019-03-20T23:08:19.144Z,225.00
2019-03-20T23:10:19.304Z,225.00
2019-03-20T23:12:19.226Z,225.00
2019-03-20T23:14:19.476Z,225.00
2019-03-20T23:16:19.514Z,225.00
2019-03-20T23:18:19.516Z,225.00
2019-03-20T23:20:19.534Z,225.00
2019-03-20T23:22:19.476Z,225.00
2019-03-20T23:24:19.469Z,225.00
2019-03-20T23:26:19.355Z,225.00
2019-03-20T23:28:19.154Z,225.00
2019-03-20T23:30:19.290Z,225.00
2019-03-20T23:32:19.474Z,225.00
2019-03-20T23:34:19.509Z,225.00
2019-03-20T23:36:19.626Z,225.00
2019-03-20T23:38:19.256Z,225.00
2019-03-20T23:40:19.438Z,225.00
2019-03-20T23:42:19.259Z,225.00
2019-03-20T23:44:19.673Z,225.00
2019-03-20T23:46:19.480Z,225.00
2019-03-20T23:48:19.490Z,225.00
2019-03-20T23:50:19.503Z,225.00
2019-03-20T23:52:19.508Z,225.00
2019-03-20T23:54:19.435Z,225.00
2019-03-20T23:56:19.742Z,225.00
2019-03-20T23:58:19.442Z,225.00
